• Join FlightAware (Why Join?)
  • Login
  • US Flag 
09:55PM EST


 

Airport Tracker/Info


-or-


 

Live Flight TrackerFlight Track Log ✈ SWA864 ✈ 25-May-2013 ✈ KMDW - KDEN

Flight Track Log - Related Links

Times and Time Zones

All times are in EDT time to prevent confusion due to time zone crossing. See the SWA864 flight status page for this flight to view local times or setup timezone preferences in your user account.

Time Position Orientation Groundspeed Altitude Reporting Facility
EDT Latitude Longitude Course Direction KTS MPH feet Rate Location/Type
10:25AM 41.7833 -87.7000 201° Southwest 193 222 2,800  Level Chicago TRACON
10:26AM 41.7858 -87.6981 30° Northeast 189 217 3,100 2,340 Climbing Chicago Center
10:27AM 41.7272 -87.7175 194° South 251 289 5,900 1,380 Climbing Chicago Center
10:28AM 41.6642 -87.7786 216° Southwest 275 316 6,000 1,440 Climbing Chicago Center
10:29AM 41.5925 -87.8522 218° Southwest 273 314 8,900 1,560 Climbing Chicago Center
10:30AM 41.5467 -87.9314 232° Southwest 270 311 9,200 1,380 Climbing Chicago Center
10:31AM 41.2453 -88.2440 201° Southwest  Level FlightAware Approximate
10:31AM 41.5000 -88.0117 232° Southwest 274 315 11,800  Level Chicago Center
10:32AM 41.4311 -88.0697 212° Southwest 324 373 12,700 1,980 Climbing Chicago Center
10:33AM 41.3231 -88.1281 202° Southwest 355 409 15,900 2,340 Climbing Chicago Center
10:34AM 41.2300 -88.1786 202° Southwest 362 417 17,500 1,560 Climbing Chicago Center
10:35AM 41.1322 -88.2322 202° Southwest 376 433 19,200 2,040 Climbing Chicago Center
10:36AM 41.0314 -88.2869 202° Southwest 390 449 21,800 2,340 Climbing Chicago Center
10:37AM 40.9278 -88.3417 202° Southwest 400 460 24,100 2,040 Climbing Chicago Center
10:38AM 40.8189 -88.4006 202° Southwest 420 483 26,100 1,920 Climbing Chicago Center
10:39AM 40.6850 -88.4708 202° Southwest 432 497 28,100 1,560 Climbing Chicago Center
10:40AM 40.5700 -88.5336 203° Southwest 445 512 29,400 1,200 Climbing Chicago Center
10:41AM 40.4642 -88.5883 201° Southwest 458 527 30,600 1,560 Climbing Chicago Center
10:42AM 40.3439 -88.6525 202° Southwest 464 534 32,700 1,920 Climbing Chicago Center
10:43AM 40.2500 -88.7528 219° Southwest 444 511 34,600 1,800 Climbing Chicago Center
10:44AM 40.1489 -88.8803 224° Southwest 422 486 36,400 1,440 Climbing Chicago Center
10:45AM 40.0642 -88.9881 224° Southwest 423 487 37,600 780 Climbing Chicago Center
10:46AM 39.9811 -89.0944 224° Southwest 419 482 38,000 180 Climbing Chicago Center
10:47AM 39.9139 -89.1819 225° Southwest 420 483 38,000  Level Kansas City Center
10:48AM 39.8303 -89.2869 224° Southwest 418 481 38,000  Level Kansas City Center
10:49AM 39.7453 -89.3917 223° Southwest 418 481 38,000  Level Kansas City Center
10:50AM 39.6558 -89.5036 224° Southwest 421 484 38,000  Level Kansas City Center
10:51AM 39.5714 -89.6106 224° Southwest 424 488 38,000  Level Kansas City Center
10:52AM 39.4856 -89.7169 224° Southwest 427 491 38,000  Level Kansas City Center
10:53AM 39.3822 -89.8444 224° Southwest 429 494 38,000  Level Kansas City Center
10:54AM 39.3028 -89.9558 227° Southwest 424 488 38,000  Level Kansas City Center
10:55AM 39.2300 -90.0733 231° Southwest 421 484 38,000  Level Kansas City Center
10:56AM 39.1553 -90.1914 231° Southwest 426 490 38,000  Level Kansas City Center
10:57AM 39.0792 -90.3083 230° Southwest 428 493 38,000  Level Kansas City Center
10:58AM 39.0044 -90.4261 231° Southwest 429 494 38,000  Level Kansas City Center
10:59AM 38.9231 -90.5514 230° Southwest 429 494 38,000  Level Kansas City Center
11:00AM 38.8364 -90.6839 230° Southwest 434 499 38,000  Level Kansas City Center
11:02AM 38.7594 -90.7978 229° Southwest 430 495 38,000  Level Kansas City Center
11:03AM 38.6814 -90.9172 230° Southwest 437 503 38,000  Level Kansas City Center
11:04AM 38.6031 -91.0361 230° Southwest 440 506 38,000  Level Kansas City Center
11:05AM 38.5097 -91.1778 230° Southwest 436 502 38,000  Level Kansas City Center
11:06AM 38.4314 -91.2964 230° Southwest 437 503 38,000  Level Kansas City Center
11:07AM 38.3561 -91.4094 230° Southwest 439 505 38,000  Level Kansas City Center
11:08AM 38.2739 -91.5283 229° Southwest 441 507 38,000  Level Kansas City Center
11:09AM 38.1783 -91.6708 230° Southwest 438 504 38,000  Level Kansas City Center
11:10AM 38.1572 -91.8131 259° West 410 472 38,000  Level Kansas City Center
11:11AM 38.1564 -91.9606 270° West 415 478 38,000  Level Kansas City Center
11:12AM 38.1583 -92.1103 271° West 406 467 38,000  Level Kansas City Center
11:13AM 38.1594 -92.2550 271° West 413 475 38,000  Level Kansas City Center
11:14AM 38.1614 -92.4011 271° West 416 479 38,000  Level Kansas City Center
11:15AM 38.1625 -92.5494 271° West 419 482 38,000  Level Kansas City Center
11:16AM 38.1619 -92.6972 270° West 420 483 38,000  Level Kansas City Center
11:17AM 38.1611 -92.8656 270° West 422 486 38,000  Level Kansas City Center
11:18AM 38.1611 -93.0167 270° West 425 489 38,000  Level Kansas City Center
11:19AM 38.1622 -93.1678 271° West 426 490 38,000  Level Kansas City Center
11:20AM 38.1622 -93.3172 270° West 425 489 38,000  Level Kansas City Center
11:21AM 38.1611 -93.5006 270° West 430 495 38,000  Level Kansas City Center
11:22AM 38.1606 -93.6494 270° West 425 489 38,000  Level Kansas City Center
11:23AM 38.1603 -93.7972 270° West 420 483 38,000  Level Kansas City Center
11:24AM 38.1606 -93.9447 270° West 418 481 38,000  Level Kansas City Center
11:25AM 38.1594 -94.1036 270° West 422 486 38,000  Level Kansas City Center
11:26AM 38.1586 -94.2442 270° West 418 481 38,000  Level Kansas City Center
11:27AM 38.1558 -94.4106 269° West 420 483 38,000  Level Kansas City Center
11:28AM 38.1553 -94.5481 270° West 411 473 38,000  Level Kansas City Center
11:29AM 38.1531 -94.7103 269° West 410 472 38,000 300 Level Kansas City Center
11:30AM 38.1508 -94.8481 269° West 408 470 38,700 780 Climbing Kansas City Center
11:31AM 38.1483 -95.0108 269° West 411 473 39,700 600 Climbing Kansas City Center
11:32AM 38.1456 -95.1536 269° West 417 480 40,000 120 Climbing Kansas City Center
11:34AM 38.1428 -95.3169 269° West 413 475 40,000  Level Kansas City Center
11:35AM 38.1403 -95.4553 269° West 410 472 40,000  Level Kansas City Center
11:36AM 38.1381 -95.5908 269° West 403 464 40,000  Level Kansas City Center
11:37AM 38.1342 -95.7478 268° West 399 459 40,000  Level Kansas City Center
11:38AM 38.1317 -95.8806 269° West 395 455 40,000  Level Kansas City Center
11:39AM 38.1281 -96.0369 268° West 396 456 40,000  Level Kansas City Center
11:40AM 38.1239 -96.1828 268° West 395 455 40,000  Level Kansas City Center
11:41AM 38.1206 -96.3214 268° West 394 453 40,000  Level Kansas City Center
11:42AM 38.1169 -96.4600 268° West 394 453 40,000  Level Kansas City Center
11:43AM 38.1122 -96.5986 268° West 393 452 40,000  Level Kansas City Center
11:44AM 38.1092 -96.7383 268° West 395 455 40,000  Level Kansas City Center
11:45AM 38.1039 -96.8803 267° West 401 461 40,000  Level Kansas City Center
11:46AM 38.0992 -97.0233 268° West 406 467 40,000  Level Kansas City Center
11:47AM 38.0942 -97.1919 268° West 400 460 40,000  Level Kansas City Center
11:48AM 38.0889 -97.3333 267° West 401 461 40,000  Level Kansas City Center
11:49AM 38.0833 -97.4856 267° West 398 458 40,000  Level Kansas City Center
11:50AM 38.0772 -97.6336 267° West 404 465 40,000  Level Kansas City Center
11:51AM 38.0717 -97.7758 267° West 405 466 40,000  Level Kansas City Center
11:52AM 38.0686 -97.9017 268° West 404 465 40,000  Level Kansas City Center
11:53AM 38.0617 -98.0739 267° West 407 468 40,000  Level Kansas City Center
11:54AM 38.0636 -98.2031 271° West 401 461 40,000  Level Kansas City Center
11:55AM 38.0714 -98.3436 274° West 405 466 40,000  Level Kansas City Center
11:56AM 38.0792 -98.4858 274° West 404 465 40,000  Level Kansas City Center
11:57AM 38.0881 -98.6553 274° West 403 464 40,000  Level Kansas City Center
11:58AM 38.0947 -98.7975 273° West 404 465 40,000  Level Kansas City Center
11:59AM 38.1017 -98.9389 274° West 403 464 40,000  Level Kansas City Center
12:00PM 38.1086 -99.0814 274° West 404 465 40,000  Level Kansas City Center
12:01PM 38.1156 -99.2231 274° West 403 464 40,000  Level Kansas City Center
12:02PM 38.1214 -99.3642 273° West 401 461 40,000  Level Kansas City Center
12:03PM 38.1286 -99.5186 273° West 400 460 40,000  Level Kansas City Center
12:04PM 38.1353 -99.6747 273° West 398 458 40,000  Level Kansas City Center
12:05PM 38.1400 -99.8089 273° West 398 458 40,000  Level Kansas City Center
12:07PM 38.1467 -99.9664 273° West 400 460 40,000  Level Kansas City Center
12:08PM 38.1514 -100.1008 273° West 399 459 40,000  Level Kansas City Center
12:09PM 38.1575 -100.2353 273° West 399 459 40,000  Level Kansas City Center
12:10PM 38.1622 -100.3906 272° West 396 456 40,000  Level Kansas City Center
12:11PM 38.1656 -100.5228 272° West 395 455 40,000  Level Kansas City Center
12:12PM 38.1711 -100.6769 273° West 394 453 40,000  Level Kansas City Center
12:13PM 38.1753 -100.8083 272° West 392 451 40,000  Level Kansas City Center
12:14PM 38.1800 -100.9622 272° West 392 451 40,000  Level Kansas City Center
12:15PM 38.1839 -101.0944 272° West 393 452 40,000  Level Kansas City Center
12:15PM 38.1850 -101.1383 272° West 395 455 40,000  Level Denver Center
12:16PM 38.1889 -101.2703 272° West 393 452 40,000  Level Denver Center
12:17PM 38.1947 -101.4242 273° West 392 451 40,000 -540 Level Denver Center
12:18PM 38.2444 -101.5453 298° West 412 474 39,000 -1,020 Descending Denver Center
12:19PM 38.3139 -101.6869 302° West 421 484 38,000 -1,020 Descending Denver Center
12:20PM 38.3744 -101.8067 303° West 421 484 37,000 -900 Descending Denver Center
12:21PM 38.4436 -101.9467 302° West 419 482 36,000 -900 Descending Denver Center
12:23PM 38.5128 -102.0886 302° West 422 486 34,900 -900 Descending Denver Center
12:24PM 38.5944 -102.2525 303° West 428 493 34,000 -480 Descending Denver Center
12:25PM 38.6639 -102.3967 302° West 427 491 34,000  Level Denver Center
12:26PM 38.7247 -102.5186 303° West 426 490 34,000  Level Denver Center
12:27PM 38.7919 -102.6611 301° West 419 482 34,000  Level Denver Center
12:28PM 38.8503 -102.7803 302° West 424 488 34,000  Level Denver Center
12:29PM 38.9281 -102.9439 301° West 421 484 34,000  Level Denver Center
12:30PM 38.9864 -103.0661 302° West 421 484 34,000 -420 Level Denver Center
12:31PM 39.0542 -103.2089 301° West 419 482 33,200 -1,500 Descending Denver Center
12:32PM 39.1128 -103.3303 302° West 418 481 30,900 -2,340 Descending Denver Center
12:33PM 39.1781 -103.4692 301° West 407 468 28,400 -2,220 Descending Denver Center
12:34PM 39.2322 -103.5850 301° West 397 457 26,400 -2,100 Descending Denver Center
12:35PM 39.2939 -103.7158 301° West 385 443 24,100 -2,100 Descending Denver Center
12:36PM 39.3472 -103.8319 301° West 392 451 22,100 -1,500 Descending Denver Center
12:37PM 39.4042 -103.9539 301° West 379 436 21,100 -1,320 Descending Denver Center
12:38PM 39.4656 -104.0561 308° West 338 389 19,400 -1,560 Descending Denver Center
12:39PM 39.5206 -104.1481 308° West 324 373 17,900 -1,200 Descending Denver Center
12:40PM 39.5753 -104.2372 309° West 319 367 17,000 -780 Descending Denver Center
12:41PM 39.6317 -104.3319 308° West 310 357 16,400 -1,020 Descending Denver Center
12:42PM 39.6839 -104.4186 308° West 305 351 14,900 -1,500 Descending Denver Center
12:43PM 39.7378 -104.5072 308° West 292 336 13,400 -1,440 Descending Denver Center
12:45PM 39.8189 -104.5233 351° North 308 354 12,000 -1,140 Descending Denver Center
12:46PM 39.9086 -104.5219 North 302 348 11,100 -780 Descending Denver Center
12:47PM 39.9831 -104.5217 360° North 274 315 10,300 -900 Descending Denver Center
12:48PM 40.0542 -104.5503 343° North 234 269 9,100 -1,140 Descending Denver Center
12:49PM 40.0361 -104.6197 251° West 210 242 8,000 -1,020 Descending Denver Center
12:50PM 39.9958 -104.6681 223° Southwest 199 229 7,000 -780 Descending Denver Center
12:51PM 39.9506 -104.6867 197° South 165 190 6,300 -720 Descending Denver Center
12:52PM 39.9006 -104.6869 180° South 148 170 5,500 -780 Descending Denver Center
12:54PM 39.8617 -104.6732 North  Level Estimated
01:01PM 39.8617 -104.6732 North  Level Estimated
01:02PM 39.8617 -104.6732 North  Level Estimated